createdAt,value
2022-09-04T00:00:10.409Z,93.09
2022-09-04T00:03:20.170Z,92.52
2022-09-04T00:05:57.307Z,92.56
2022-09-04T00:08:33.316Z,92.58
2022-09-04T00:11:16.046Z,91.73
2022-09-04T00:13:57.678Z,91.73
2022-09-04T00:16:55.008Z,92.00
2022-09-04T00:19:44.437Z,91.91
2022-09-04T00:22:31.622Z,92.19
2022-09-04T00:25:21.254Z,92.93
2022-09-04T00:27:55.931Z,91.61
2022-09-04T00:30:23.189Z,91.84
2022-09-04T00:33:15.936Z,92.54
2022-09-04T00:35:52.086Z,91.82
2022-09-04T00:38:30.889Z,92.20
2022-09-04T00:41:12.593Z,91.75
2022-09-04T00:44:26.233Z,92.30
2022-09-04T00:47:20.661Z,91.21
2022-09-04T00:50:17.224Z,91.25
2022-09-04T00:52:59.497Z,90.71
2022-09-04T00:55:46.738Z,90.51
2022-09-04T00:58:13.474Z,90.86
2022-09-04T01:00:40.915Z,90.68
2022-09-04T01:03:07.714Z,90.93
2022-09-04T01:05:46.101Z,91.76
2022-09-04T01:08:39.895Z,91.39
2022-09-04T01:11:41.417Z,91.32
2022-09-04T01:14:41.505Z,92.83
2022-09-04T01:17:37.319Z,91.76
2022-09-04T01:20:28.585Z,91.73
2022-09-04T01:23:12.741Z,92.17
2022-09-04T01:26:11.409Z,92.75
2022-09-04T01:28:59.125Z,93.02
2022-09-04T01:31:53.419Z,92.99
2022-09-04T01:34:34.168Z,93.37
2022-09-04T01:37:16.138Z,93.46
2022-09-04T01:39:51.065Z,92.60
2022-09-04T01:42:23.804Z,93.29
2022-09-04T01:44:50.610Z,93.88
2022-09-04T01:47:30.528Z,94.01
2022-09-04T01:50:23.725Z,93.85
2022-09-04T01:53:40.809Z,93.56
2022-09-04T01:56:20.850Z,93.44
2022-09-04T01:58:56.885Z,92.81
2022-09-04T02:01:48.821Z,93.59
2022-09-04T02:04:54.747Z,93.28
2022-09-04T02:08:18.570Z,92.16
2022-09-04T02:11:16.888Z,92.43
2022-09-04T02:13:51.546Z,92.55
2022-09-04T02:16:45.397Z,92.99
2022-09-04T02:19:50.428Z,93.63
2022-09-04T02:22:47.914Z,93.48
2022-09-04T02:25:33.274Z,93.73
2022-09-04T02:28:31.297Z,93.53
2022-09-04T02:31:49.438Z,93.77
2022-09-04T02:34:28.830Z,93.32
2022-09-04T02:37:29.066Z,92.83
2022-09-04T02:40:43.247Z,92.61
2022-09-04T02:43:28.253Z,92.85
2022-09-04T02:46:28.854Z,91.89
2022-09-04T02:49:14.271Z,92.24
2022-09-04T02:52:33.583Z,92.53
2022-09-04T02:55:29.174Z,92.44
2022-09-04T02:58:20.105Z,91.87
2022-09-04T03:00:46.829Z,91.76
2022-09-04T03:03:21.626Z,92.44
2022-09-04T03:06:14.658Z,92.38
2022-09-04T03:08:54.372Z,91.89
2022-09-04T03:11:32.160Z,91.84
2022-09-04T03:14:18.037Z,92.52
2022-09-04T03:16:57.305Z,93.30
2022-09-04T03:19:42.636Z,93.92
2022-09-04T03:22:30.409Z,94.82
2022-09-04T03:25:36.873Z,94.95
2022-09-04T03:28:04.241Z,95.09
2022-09-04T03:30:35.103Z,95.08
2022-09-04T03:33:43.908Z,95.01
2022-09-04T03:36:22.406Z,94.99
2022-09-04T03:39:29.341Z,95.22
2022-09-04T03:42:24.241Z,94.80
2022-09-04T03:45:12.530Z,95.25
2022-09-04T03:48:20.050Z,95.18
2022-09-04T03:51:01.666Z,95.23
2022-09-04T03:53:44.742Z,94.66
2022-09-04T03:56:44.833Z,94.10
2022-09-04T03:59:25.426Z,93.43
2022-09-04T04:02:23.926Z,93.12
2022-09-04T04:05:03.741Z,92.97
2022-09-04T04:08:30.726Z,93.00
2022-09-04T04:11:53.594Z,93.42
2022-09-04T04:14:53.668Z,93.87
2022-09-04T04:18:02.285Z,93.87
2022-09-04T04:20:44.640Z,94.50
2022-09-04T04:23:36.382Z,94.55
2022-09-04T04:26:11.523Z,94.23
2022-09-04T04:29:04.254Z,94.68
2022-09-04T04:32:10.929Z,94.81
2022-09-04T04:35:13.261Z,95.03
2022-09-04T04:37:51.926Z,94.21
2022-09-04T04:40:28.238Z,93.86
2022-09-04T04:43:24.942Z,94.31
2022-09-04T04:46:16.144Z,94.58
2022-09-04T04:48:57.943Z,95.31
2022-09-04T04:52:10.530Z,95.46
2022-09-04T04:55:21.538Z,94.70
2022-09-04T04:58:34.486Z,93.96
2022-09-04T05:01:43.310Z,93.64
2022-09-04T05:04:30.112Z,94.08
2022-09-04T05:07:17.953Z,93.64
2022-09-04T05:10:19.022Z,93.98
2022-09-04T05:13:00.455Z,93.46
2022-09-04T05:15:52.904Z,93.76
2022-09-04T05:18:42.378Z,94.01
2022-09-04T05:21:25.387Z,94.00
2022-09-04T05:24:15.054Z,93.70
2022-09-04T05:26:46.479Z,94.01
2022-09-04T05:29:17.686Z,93.75
2022-09-04T05:32:05.561Z,94.00
2022-09-04T05:34:51.787Z,95.10
2022-09-04T05:38:02.949Z,95.19
2022-09-04T05:40:46.963Z,94.99
2022-09-04T05:43:49.366Z,95.23
2022-09-04T05:46:31.252Z,94.87
2022-09-04T05:49:24.321Z,94.75
2022-09-04T05:52:23.302Z,94.54
2022-09-04T05:55:17.469Z,94.00
2022-09-04T05:58:05.505Z,94.06
2022-09-04T06:00:47.026Z,93.77
2022-09-04T06:03:47.706Z,93.80
2022-09-04T06:06:42.724Z,93.74
2022-09-04T06:09:28.973Z,93.53
2022-09-04T06:12:34.687Z,93.63
2022-09-04T06:15:41.882Z,93.86
2022-09-04T06:18:51.999Z,94.57
2022-09-04T06:21:58.934Z,94.92
2022-09-04T06:25:17.618Z,95.26
2022-09-04T06:28:41.724Z,95.61
2022-09-04T06:31:20.742Z,95.99
2022-09-04T06:34:04.385Z,96.04
2022-09-04T06:36:49.350Z,96.23
2022-09-04T06:39:25.134Z,96.31
2022-09-04T06:42:13.252Z,97.61
2022-09-04T06:45:22.910Z,97.42
2022-09-04T06:48:11.101Z,97.56
2022-09-04T06:50:57.091Z,98.29
2022-09-04T06:53:43.451Z,98.09
2022-09-04T06:56:43.006Z,98.55
2022-09-04T06:59:56.697Z,98.39
2022-09-04T07:02:32.504Z,98.71
2022-09-04T07:05:43.488Z,99.11
2022-09-04T07:08:58.396Z,99.65
2022-09-04T07:11:46.998Z,100.00
2022-09-04T07:14:41.874Z,99.75
2022-09-04T07:17:40.406Z,100.00
2022-09-04T07:20:53.586Z,100.00
2022-09-04T07:23:51.170Z,100.00
2022-09-04T07:26:42.061Z,100.00
2022-09-04T07:29:31.861Z,100.00
2022-09-04T07:32:18.913Z,100.00
2022-09-04T07:35:08.100Z,100.00
2022-09-04T07:38:02.981Z,100.00
2022-09-04T07:41:10.665Z,100.00
2022-09-04T07:43:53.987Z,100.00
2022-09-04T07:46:47.195Z,99.21
2022-09-04T07:49:23.981Z,99.57
2022-09-04T07:52:00.299Z,98.84
2022-09-04T07:54:38.254Z,97.49
2022-09-04T07:57:42.638Z,96.69
2022-09-04T08:00:22.931Z,96.82
2022-09-04T08:03:18.067Z,97.57
2022-09-04T08:06:15.056Z,95.77
2022-09-04T08:09:23.158Z,94.83
2022-09-04T08:12:35.552Z,94.54
2022-09-04T08:15:40.898Z,93.66
2022-09-04T08:18:34.428Z,90.92
2022-09-04T08:21:18.116Z,91.10
2022-09-04T08:24:34.075Z,87.98
2022-09-04T08:27:44.528Z,84.83
2022-09-04T08:30:15.807Z,86.56
2022-09-04T08:33:41.062Z,86.85
2022-09-04T08:36:30.278Z,85.21
2022-09-04T08:39:27.560Z,84.61
2022-09-04T08:42:12.909Z,82.57
2022-09-04T08:45:22.461Z,81.01
2022-09-04T08:48:11.218Z,73.76
2022-09-04T08:51:10.481Z,76.17
2022-09-04T08:54:02.607Z,74.03
2022-09-04T08:56:47.670Z,72.64
2022-09-04T09:00:10.789Z,69.76
2022-09-04T09:02:49.646Z,69.90
2022-09-04T09:05:51.147Z,67.41
2022-09-04T09:09:01.729Z,67.90
2022-09-04T09:11:43.559Z,67.91
2022-09-04T09:14:16.394Z,66.63
2022-09-04T09:17:12.997Z,65.27
2022-09-04T09:19:59.646Z,64.08
2022-09-04T09:22:37.530Z,64.07
2022-09-04T09:25:12.918Z,60.19
2022-09-04T09:28:19.230Z,61.88
2022-09-04T09:31:28.585Z,64.65
2022-09-04T09:34:47.769Z,64.05
2022-09-04T09:38:04.445Z,61.54
2022-09-04T09:40:57.844Z,61.92
2022-09-04T09:43:40.105Z,61.71
2022-09-04T09:46:43.105Z,61.45
2022-09-04T09:49:35.655Z,64.04
2022-09-04T09:52:33.351Z,64.36
2022-09-04T09:55:21.776Z,62.82
2022-09-04T09:58:23.270Z,60.49
2022-09-04T10:01:14.449Z,59.65
2022-09-04T10:04:10.188Z,58.89
2022-09-04T10:06:42.762Z,60.10
2022-09-04T10:09:23.735Z,62.42
2022-09-04T10:12:05.446Z,64.21
2022-09-04T10:14:59.353Z,64.24
2022-09-04T10:18:40.950Z,66.64
2022-09-04T10:21:50.446Z,66.14
2022-09-04T10:24:57.613Z,66.61
2022-09-04T10:28:02.809Z,67.51
2022-09-04T10:31:03.428Z,67.04
2022-09-04T10:33:55.809Z,68.23
2022-09-04T10:36:45.092Z,68.13
2022-09-04T10:39:47.222Z,67.82
2022-09-04T10:42:31.111Z,59.26
2022-09-04T10:45:17.359Z,59.61
2022-09-04T10:48:08.145Z,57.44
2022-09-04T10:50:37.723Z,55.78
2022-09-04T10:53:25.352Z,53.30
2022-09-04T10:56:19.662Z,53.09
2022-09-04T10:59:08.667Z,51.77
2022-09-04T11:01:47.821Z,47.48
2022-09-04T11:05:07.202Z,48.71
2022-09-04T11:08:13.946Z,49.18
2022-09-04T11:11:07.423Z,49.80
2022-09-04T11:13:51.592Z,50.07
2022-09-04T11:16:45.000Z,48.00
2022-09-04T11:19:34.385Z,47.24
2022-09-04T11:22:29.033Z,46.19
2022-09-04T11:25:45.262Z,45.65
2022-09-04T11:28:44.320Z,47.22
2022-09-04T11:32:00.293Z,46.51
2022-09-04T11:35:32.089Z,48.01
2022-09-04T11:38:19.351Z,47.54
2022-09-04T11:41:35.125Z,49.06
2022-09-04T11:44:35.249Z,47.35
2022-09-04T11:47:41.289Z,47.24
2022-09-04T11:50:56.608Z,48.54
2022-09-04T11:53:29.231Z,49.85
2022-09-04T11:56:35.501Z,49.80
2022-09-04T11:59:26.773Z,50.50
2022-09-04T12:02:16.718Z,50.29
2022-09-04T12:05:24.945Z,50.65
2022-09-04T12:08:49.205Z,51.78
2022-09-04T12:11:45.737Z,49.58
2022-09-04T12:14:47.250Z,48.95
2022-09-04T12:17:15.608Z,48.13
2022-09-04T12:20:04.182Z,47.94
2022-09-04T12:22:54.665Z,47.35
2022-09-04T12:26:01.473Z,44.11
2022-09-04T12:28:50.810Z,45.48
2022-09-04T12:31:51.857Z,47.15
2022-09-04T12:34:43.370Z,45.93
2022-09-04T12:37:43.686Z,44.70
2022-09-04T12:40:31.999Z,45.85
2022-09-04T12:43:20.743Z,46.06
2022-09-04T12:46:14.646Z,44.85
2022-09-04T12:49:04.347Z,43.95
2022-09-04T12:51:45.904Z,44.21
2022-09-04T12:54:25.073Z,47.04
2022-09-04T12:57:36.502Z,48.26
2022-09-04T13:00:12.304Z,47.15
2022-09-04T13:03:14.375Z,46.60
2022-09-04T13:06:04.183Z,47.97
2022-09-04T13:08:53.818Z,46.37
2022-09-04T13:11:54.658Z,45.84
2022-09-04T13:14:37.535Z,47.32
2022-09-04T13:17:28.253Z,47.90
2022-09-04T13:20:22.763Z,50.06
2022-09-04T13:23:14.274Z,44.68
2022-09-04T13:26:09.061Z,43.29
2022-09-04T13:29:16.123Z,42.35
2022-09-04T13:32:25.864Z,42.58
2022-09-04T13:35:26.378Z,44.10
2022-09-04T13:38:30.134Z,43.52
2022-09-04T13:41:36.669Z,43.81
2022-09-04T13:44:50.188Z,41.52
2022-09-04T13:47:33.202Z,40.44
2022-09-04T13:50:33.203Z,39.81
2022-09-04T13:53:16.690Z,38.04
2022-09-04T13:55:57.287Z,37.59
2022-09-04T13:58:44.289Z,37.08
2022-09-04T14:01:21.869Z,37.41
2022-09-04T14:03:55.504Z,38.11
2022-09-04T14:06:25.605Z,37.94
2022-09-04T14:09:04.493Z,36.67
2022-09-04T14:11:38.126Z,37.37
2022-09-04T14:15:07.778Z,38.38
2022-09-04T14:18:00.157Z,39.31
2022-09-04T14:20:34.441Z,41.17
2022-09-04T14:23:16.012Z,41.24
2022-09-04T14:25:56.033Z,39.40
2022-09-04T14:28:40.423Z,38.86
2022-09-04T14:31:33.949Z,39.35
2022-09-04T14:34:50.294Z,38.17
2022-09-04T14:37:59.366Z,37.52
2022-09-04T14:41:11.755Z,37.28
2022-09-04T14:43:59.545Z,38.31
2022-09-04T14:46:51.520Z,36.44
2022-09-04T14:49:25.301Z,34.85
2022-09-04T14:51:56.813Z,37.46
2022-09-04T14:54:29.949Z,36.92
2022-09-04T14:57:11.602Z,38.04
2022-09-04T14:59:56.534Z,39.30
2022-09-04T15:02:40.937Z,41.84
2022-09-04T15:05:31.551Z,41.30
2022-09-04T15:08:02.535Z,40.23
2022-09-04T15:10:47.792Z,40.59
2022-09-04T15:13:29.269Z,41.20
2022-09-04T15:16:16.278Z,40.89
2022-09-04T15:19:07.221Z,41.02
2022-09-04T15:21:49.052Z,44.15
2022-09-04T15:24:40.423Z,45.05
2022-09-04T15:27:20.383Z,42.59
2022-09-04T15:30:02.856Z,39.45
2022-09-04T15:32:39.904Z,37.81
2022-09-04T15:35:15.701Z,39.99
2022-09-04T15:37:48.344Z,42.42
2022-09-04T15:40:29.168Z,42.76
2022-09-04T15:43:15.676Z,43.80
2022-09-04T15:45:57.085Z,43.49
2022-09-04T15:49:00.177Z,44.09
2022-09-04T15:51:47.829Z,44.47
2022-09-04T15:54:28.931Z,44.44
2022-09-04T15:57:20.212Z,45.31
2022-09-04T16:00:14.565Z,45.03
2022-09-04T16:03:25.161Z,44.54
2022-09-04T16:05:58.678Z,44.89
2022-09-04T16:08:45.343Z,47.67
2022-09-04T16:11:55.957Z,47.78
2022-09-04T16:14:30.273Z,47.09
2022-09-04T16:17:07.513Z,48.12
2022-09-04T16:19:36.962Z,48.21
2022-09-04T16:22:43.981Z,48.74
2022-09-04T16:25:29.135Z,48.99
2022-09-04T16:28:12.354Z,48.85
2022-09-04T16:30:42.300Z,49.39
2022-09-04T16:33:33.315Z,49.82
2022-09-04T16:36:09.585Z,51.40
2022-09-04T16:39:03.942Z,50.66
2022-09-04T16:42:12.713Z,51.37
2022-09-04T16:45:11.211Z,51.79
2022-09-04T16:47:45.826Z,52.44
2022-09-04T16:50:33.269Z,52.61
2022-09-04T16:53:40.089Z,53.11
2022-09-04T16:56:37.478Z,55.02
2022-09-04T16:59:46.194Z,56.32
2022-09-04T17:02:36.113Z,57.48
2022-09-04T17:05:35.114Z,57.76
2022-09-04T17:08:07.839Z,56.21
2022-09-04T17:10:47.916Z,57.42
2022-09-04T17:13:15.300Z,57.00
2022-09-04T17:16:20.142Z,57.70
2022-09-04T17:18:53.698Z,58.69
2022-09-04T17:27:58.784Z,59.86
2022-09-04T17:29:00.160Z,59.53
2022-09-04T17:29:11.495Z,60.08
2022-09-04T17:31:29.950Z,60.42
2022-09-04T17:40:44.054Z,60.66
2022-09-04T17:40:50.561Z,61.81
2022-09-04T17:41:44.620Z,62.48
2022-09-04T17:44:10.826Z,63.39
2022-09-04T17:46:45.902Z,64.19
2022-09-04T17:49:21.437Z,64.98
2022-09-04T17:52:08.999Z,66.11
2022-09-04T17:54:49.189Z,66.90
2022-09-04T17:57:55.843Z,67.26
2022-09-04T18:00:30.119Z,68.42
2022-09-04T18:03:26.686Z,69.53
2022-09-04T18:06:03.500Z,69.98
2022-09-04T18:08:39.674Z,70.70
2022-09-04T18:11:31.366Z,71.08
2022-09-04T18:14:15.282Z,71.16
2022-09-04T18:17:31.169Z,71.68
2022-09-04T18:20:44.129Z,71.71
2022-09-04T18:23:48.154Z,71.38
2022-09-04T18:26:41.535Z,71.99
2022-09-04T18:34:12.542Z,72.34
2022-09-04T18:37:13.273Z,73.54
2022-09-04T18:37:25.652Z,73.03
2022-09-04T18:39:08.053Z,72.32
2022-09-04T18:47:44.743Z,73.18
2022-09-04T18:50:43.481Z,74.70
2022-09-04T18:50:51.228Z,75.93
2022-09-04T18:51:31.369Z,75.49
2022-09-04T18:54:03.894Z,75.48
2022-09-04T18:56:42.837Z,76.98
2022-09-04T18:59:18.617Z,76.59
2022-09-04T19:02:01.104Z,76.60
2022-09-04T19:05:01.629Z,77.06
2022-09-04T19:07:54.276Z,77.09
2022-09-04T19:10:29.398Z,77.92
2022-09-04T19:13:25.289Z,79.18
2022-09-04T19:16:10.873Z,78.31
2022-09-04T19:19:01.358Z,78.48
2022-09-04T19:21:36.590Z,78.82
2022-09-04T19:24:21.337Z,79.31
2022-09-04T19:26:56.891Z,79.74
2022-09-04T19:29:27.984Z,79.72
2022-09-04T19:32:08.046Z,79.54
2022-09-04T19:34:45.773Z,80.39
2022-09-04T19:39:00.213Z,79.84
2022-09-04T19:45:57.609Z,79.24
2022-09-04T19:46:16.094Z,79.33
2022-09-04T19:46:43.133Z,80.12
2022-09-04T19:50:46.127Z,80.77
2022-09-04T19:53:31.575Z,81.39
2022-09-04T19:55:35.749Z,80.85
2022-09-04T19:58:20.615Z,81.72
2022-09-04T20:00:55.857Z,83.23
2022-09-04T20:03:33.593Z,83.30
2022-09-04T20:06:38.806Z,84.08
2022-09-04T20:09:33.127Z,83.53
2022-09-04T20:12:14.971Z,83.35
2022-09-04T20:14:54.721Z,83.01
2022-09-04T20:18:04.032Z,82.40
2022-09-04T20:20:56.432Z,83.03
2022-09-04T20:23:53.068Z,83.88
2022-09-04T20:26:32.319Z,84.51
2022-09-04T20:29:19.469Z,84.06
2022-09-04T20:32:32.087Z,84.30
2022-09-04T20:35:14.617Z,83.67
2022-09-04T20:37:49.064Z,83.25
2022-09-04T20:40:36.527Z,84.28
2022-09-04T20:43:03.238Z,83.96
2022-09-04T20:52:46.367Z,84.07
2022-09-04T20:52:49.774Z,84.29
2022-09-04T20:53:00.036Z,83.87
2022-09-04T20:55:12.791Z,83.45
2022-09-04T21:03:05.443Z,84.92
2022-09-04T21:03:18.060Z,85.71
2022-09-04T21:04:43.252Z,85.96
2022-09-04T21:07:34.581Z,85.70
2022-09-04T21:10:46.967Z,85.22
2022-09-04T21:13:56.457Z,85.35
2022-09-04T21:16:51.390Z,84.66
2022-09-04T21:19:30.547Z,85.25
2022-09-04T21:22:33.608Z,86.24
2022-09-04T21:25:31.666Z,85.74
2022-09-04T21:28:36.093Z,85.72
2022-09-04T21:31:49.525Z,84.79
2022-09-04T21:34:59.966Z,85.11
2022-09-04T21:38:08.950Z,86.57
2022-09-04T21:40:49.792Z,86.39
2022-09-04T21:43:35.459Z,86.31
2022-09-04T21:46:31.680Z,86.11
2022-09-04T21:49:26.880Z,85.73
2022-09-04T21:52:28.084Z,85.70
2022-09-04T21:57:45.818Z,86.86
2022-09-04T22:02:42.249Z,86.40
2022-09-04T22:02:44.807Z,86.30
2022-09-04T22:05:48.091Z,87.65
2022-09-04T22:13:32.370Z,88.00
2022-09-04T22:13:39.853Z,87.66
2022-09-04T22:14:55.281Z,88.22
2022-09-04T22:17:45.000Z,88.06
2022-09-04T22:20:49.739Z,88.46
2022-09-04T22:24:09.245Z,88.56
2022-09-04T22:27:12.437Z,88.52
2022-09-04T22:30:05.826Z,88.58
2022-09-04T22:32:59.346Z,87.91
2022-09-04T22:35:47.149Z,87.06
2022-09-04T22:38:30.282Z,87.76
2022-09-04T22:41:38.367Z,88.19
2022-09-04T22:44:39.065Z,87.46
2022-09-04T22:47:31.303Z,87.72
2022-09-04T22:50:48.767Z,87.40
2022-09-04T22:54:00.183Z,87.92
2022-09-04T22:56:54.230Z,87.96
2022-09-04T22:59:46.865Z,88.50
2022-09-04T23:02:19.597Z,88.44
2022-09-04T23:05:23.165Z,88.22
2022-09-04T23:13:43.117Z,88.04
2022-09-04T23:13:57.990Z,87.91
2022-09-04T23:14:42.256Z,88.74
2022-09-04T23:17:52.825Z,88.75
2022-09-04T23:26:35.159Z,88.51
2022-09-04T23:26:44.301Z,88.79
2022-09-04T23:27:41.190Z,89.47
2022-09-04T23:30:25.249Z,89.16
2022-09-04T23:33:27.808Z,89.17
2022-09-04T23:36:02.622Z,89.13
2022-09-04T23:39:22.035Z,89.40
2022-09-04T23:42:46.514Z,89.11
2022-09-04T23:46:01.760Z,88.37
2022-09-04T23:48:37.285Z,88.52
2022-09-04T23:51:30.661Z,88.42
2022-09-04T23:54:44.154Z,89.24
2022-09-04T23:57:26.934Z,88.75
